sensor_id;sensor_type;location;lat;lon;timestamp;temperature;humidity
14521;DHT22;7347;50.844;4.490;2023-11-19T09:29:13;13.00;99.90
14521;DHT22;7347;50.844;4.490;2023-11-19T09:31:40;13.00;99.90
14521;DHT22;7347;50.844;4.490;2023-11-19T09:34:07;12.90;99.90
14521;DHT22;7347;50.844;4.490;2023-11-19T09:36:34;12.80;99.90
14521;DHT22;7347;50.844;4.490;2023-11-19T09:39:01;12.80;99.90
14521;DHT22;7347;50.844;4.490;2023-11-19T09:41:29;12.70;99.90
14521;DHT22;7347;50.844;4.490;2023-11-19T09:43:56;12.70;99.90
14521;DHT22;7347;50.844;4.490;2023-11-19T09:46:26;12.80;99.90
14521;DHT22;7347;50.844;4.490;2023-11-19T09:48:53;12.80;99.90
14521;DHT22;7347;50.844;4.490;2023-11-19T09:51:21;12.80;99.90
14521;DHT22;7347;50.844;4.490;2023-11-19T09:53:48;12.80;99.90
14521;DHT22;7347;50.844;4.490;2023-11-19T09:56:15;12.90;99.90
14521;DHT22;7347;50.844;4.490;2023-11-19T09:58:43;13.00;99.90
14521;DHT22;7347;50.844;4.490;2023-11-19T10:01:10;13.00;99.90
14521;DHT22;7347;50.844;4.490;2023-11-19T10:03:39;13.10;99.90
14521;DHT22;7347;50.844;4.490;2023-11-19T10:06:09;13.20;99.90
14521;DHT22;7347;50.844;4.490;2023-11-19T10:08:37;13.20;99.90
14521;DHT22;7347;50.844;4.490;2023-11-19T10:11:05;13.10;99.90
14521;DHT22;7347;50.844;4.490;2023-11-19T10:13:35;13.10;99.90
14521;DHT22;7347;50.844;4.490;2023-11-19T10:16:06;13.10;99.90
14521;DHT22;7347;50.844;4.490;2023-11-19T10:18:33;13.10;99.90
14521;DHT22;7347;50.844;4.490;2023-11-19T10:21:05;13.00;99.90
14521;DHT22;7347;50.844;4.490;2023-11-19T10:23:48;13.10;99.90
14521;DHT22;7347;50.844;4.490;2023-11-19T10:26:15;13.10;99.90
14521;DHT22;7347;50.844;4.490;2023-11-19T10:28:42;13.20;99.90
14521;DHT22;7347;50.844;4.490;2023-11-19T10:31:11;13.20;99.90
14521;DHT22;7347;50.844;4.490;2023-11-19T10:33:38;13.30;99.90
14521;DHT22;7347;50.844;4.490;2023-11-19T10:36:07;13.30;99.90
14521;DHT22;7347;50.844;4.490;2023-11-19T10:38:34;13.40;99.90
14521;DHT22;7347;50.844;4.490;2023-11-19T10:41:01;13.70;99.90
14521;DHT22;7347;50.844;4.490;2023-11-19T10:43:27;13.90;99.90
14521;DHT22;7347;50.844;4.490;2023-11-19T10:45:54;13.90;99.90
14521;DHT22;7347;50.844;4.490;2023-11-19T10:48:35;13.90;99.90
14521;DHT22;7347;50.844;4.490;2023-11-19T10:51:06;13.70;99.90
14521;DHT22;7347;50.844;4.490;2023-11-19T10:53:36;13.70;99.90
14521;DHT22;7347;50.844;4.490;2023-11-19T10:56:05;13.80;99.90
14521;DHT22;7347;50.844;4.490;2023-11-19T10:58:35;13.90;99.90
14521;DHT22;7347;50.844;4.490;2023-11-19T11:01:09;14.00;99.90
14521;DHT22;7347;50.844;4.490;2023-11-19T11:03:39;14.00;99.90
14521;DHT22;7347;50.844;4.490;2023-11-19T11:06:08;14.00;99.90
14521;DHT22;7347;50.844;4.490;2023-11-19T11:08:37;14.00;99.90
14521;DHT22;7347;50.844;4.490;2023-11-19T11:11:05;14.00;99.90
14521;DHT22;7347;50.844;4.490;2023-11-19T11:13:34;14.00;99.90
14521;DHT22;7347;50.844;4.490;2023-11-19T11:16:04;13.80;99.90
14521;DHT22;7347;50.844;4.490;2023-11-19T11:18:33;13.70;99.90
14521;DHT22;7347;50.844;4.490;2023-11-19T11:21:02;13.50;99.90
14521;DHT22;7347;50.844;4.490;2023-11-19T11:23:44;13.50;99.90
14521;DHT22;7347;50.844;4.490;2023-11-19T11:26:39;13.40;99.90
14521;DHT22;7347;50.844;4.490;2023-11-19T11:29:16;13.40;99.90
14521;DHT22;7347;50.844;4.490;2023-11-19T11:31:51;13.40;99.90
14521;DHT22;7347;50.844;4.490;2023-11-19T11:34:50;13.40;99.90
14521;DHT22;7347;50.844;4.490;2023-11-19T11:37:25;13.50;99.90
14521;DHT22;7347;50.844;4.490;2023-11-19T11:39:57;13.40;99.90
14521;DHT22;7347;50.844;4.490;2023-11-19T11:42:34;13.40;99.90
14521;DHT22;7347;50.844;4.490;2023-11-19T11:45:03;13.30;99.90
14521;DHT22;7347;50.844;4.490;2023-11-19T11:48:06;13.30;99.90
14521;DHT22;7347;50.844;4.490;2023-11-19T11:50:37;13.30;99.90
14521;DHT22;7347;50.844;4.490;2023-11-19T11:53:13;13.30;99.90
14521;DHT22;7347;50.844;4.490;2023-11-19T11:55:54;13.30;99.90
14521;DHT22;7347;50.844;4.490;2023-11-19T11:58:26;13.30;99.90
14521;DHT22;7347;50.844;4.490;2023-11-19T12:00:53;13.40;99.90
14521;DHT22;7347;50.844;4.490;2023-11-19T12:03:21;13.50;99.90
14521;DHT22;7347;50.844;4.490;2023-11-19T12:05:49;13.60;99.90
14521;DHT22;7347;50.844;4.490;2023-11-19T12:08:19;13.80;99.90
14521;DHT22;7347;50.844;4.490;2023-11-19T12:10:48;13.90;99.90
14521;DHT22;7347;50.844;4.490;2023-11-19T12:13:17;13.90;99.90
14521;DHT22;7347;50.844;4.490;2023-11-19T12:16:09;13.90;99.90
14521;DHT22;7347;50.844;4.490;2023-11-19T12:18:39;13.90;99.90
14521;DHT22;7347;50.844;4.490;2023-11-19T12:21:06;13.80;99.90
14521;DHT22;7347;50.844;4.490;2023-11-19T12:23:35;13.80;99.90
14521;DHT22;7347;50.844;4.490;2023-11-19T12:26:03;13.90;99.90
14521;DHT22;7347;50.844;4.490;2023-11-19T12:28:31;13.80;99.90
14521;DHT22;7347;50.844;4.490;2023-11-19T12:31:08;13.60;99.90
14521;DHT22;7347;50.844;4.490;2023-11-19T12:33:35;13.30;99.90
14521;DHT22;7347;50.844;4.490;2023-11-19T12:36:04;13.10;99.90
14521;DHT22;7347;50.844;4.490;2023-11-19T12:38:31;13.00;99.90
14521;DHT22;7347;50.844;4.490;2023-11-19T12:41:05;13.00;99.90
14521;DHT22;7347;50.844;4.490;2023-11-19T12:43:33;13.10;99.90
14521;DHT22;7347;50.844;4.490;2023-11-19T12:46:01;13.00;99.90
14521;DHT22;7347;50.844;4.490;2023-11-19T12:48:28;13.10;99.90
14521;DHT22;7347;50.844;4.490;2023-11-19T12:50:56;13.20;99.90
14521;DHT22;7347;50.844;4.490;2023-11-19T12:53:24;13.20;99.90
14521;DHT22;7347;50.844;4.490;2023-11-19T12:55:52;13.40;99.90
14521;DHT22;7347;50.844;4.490;2023-11-19T12:58:30;13.40;99.90
14521;DHT22;7347;50.844;4.490;2023-11-19T13:01:03;13.50;99.90
14521;DHT22;7347;50.844;4.490;2023-11-19T13:03:31;13.50;99.90
14521;DHT22;7347;50.844;4.490;2023-11-19T13:06:02;13.50;99.90
14521;DHT22;7347;50.844;4.490;2023-11-19T13:08:36;13.50;99.90
14521;DHT22;7347;50.844;4.490;2023-11-19T13:11:04;13.70;99.90
14521;DHT22;7347;50.844;4.490;2023-11-19T13:13:32;13.60;99.90
14521;DHT22;7347;50.844;4.490;2023-11-19T13:16:06;13.70;99.90
14521;DHT22;7347;50.844;4.490;2023-11-19T13:18:34;13.60;99.90
14521;DHT22;7347;50.844;4.490;2023-11-19T13:21:01;13.60;99.90
14521;DHT22;7347;50.844;4.490;2023-11-19T13:23:28;13.60;99.90
14521;DHT22;7347;50.844;4.490;2023-11-19T13:25:55;13.70;99.90
14521;DHT22;7347;50.844;4.490;2023-11-19T13:28:21;13.70;99.90
14521;DHT22;7347;50.844;4.490;2023-11-19T13:30:48;13.70;99.90
14521;DHT22;7347;50.844;4.490;2023-11-19T13:33:18;13.70;99.90
14521;DHT22;7347;50.844;4.490;2023-11-19T13:35:45;13.60;99.90
14521;DHT22;7347;50.844;4.490;2023-11-19T13:38:12;13.60;99.90
14521;DHT22;7347;50.844;4.490;2023-11-19T13:40:39;13.50;99.90
14521;DHT22;7347;50.844;4.490;2023-11-19T13:43:05;13.50;99.90
14521;DHT22;7347;50.844;4.490;2023-11-19T13:45:33;13.40;99.90
14521;DHT22;7347;50.844;4.490;2023-11-19T13:47:59;13.30;99.90
14521;DHT22;7347;50.844;4.490;2023-11-19T13:50:28;13.20;99.90
14521;DHT22;7347;50.844;4.490;2023-11-19T13:52:55;13.30;99.90
14521;DHT22;7347;50.844;4.490;2023-11-19T13:55:22;13.20;99.90
14521;DHT22;7347;50.844;4.490;2023-11-19T13:57:48;13.10;99.90
14521;DHT22;7347;50.844;4.490;2023-11-19T14:00:16;13.10;99.90
14521;DHT22;7347;50.844;4.490;2023-11-19T14:02:45;13.10;99.90
14521;DHT22;7347;50.844;4.490;2023-11-19T14:05:12;13.00;99.90
14521;DHT22;7347;50.844;4.490;2023-11-19T14:07:41;12.90;99.90
14521;DHT22;7347;50.844;4.490;2023-11-19T14:10:09;12.90;99.90
14521;DHT22;7347;50.844;4.490;2023-11-19T14:12:36;13.00;99.90
14521;DHT22;7347;50.844;4.490;2023-11-19T14:15:04;13.00;99.90
14521;DHT22;7347;50.844;4.490;2023-11-19T14:17:32;13.00;99.90
14521;DHT22;7347;50.844;4.490;2023-11-19T14:19:59;13.00;99.90
14521;DHT22;7347;50.844;4.490;2023-11-19T14:22:26;13.00;99.90
14521;DHT22;7347;50.844;4.490;2023-11-19T14:24:54;13.10;99.90
14521;DHT22;7347;50.844;4.490;2023-11-19T14:27:21;13.10;99.90
14521;DHT22;7347;50.844;4.490;2023-11-19T14:29:48;13.10;99.90
14521;DHT22;7347;50.844;4.490;2023-11-19T14:32:16;13.10;99.90
14521;DHT22;7347;50.844;4.490;2023-11-19T14:34:43;13.10;99.90
14521;DHT22;7347;50.844;4.490;2023-11-19T14:37:10;13.00;99.90
14521;DHT22;7347;50.844;4.490;2023-11-19T14:39:37;12.80;99.90
14521;DHT22;7347;50.844;4.490;2023-11-19T14:42:05;12.70;99.90
14521;DHT22;7347;50.844;4.490;2023-11-19T14:44:34;12.60;99.90
14521;DHT22;7347;50.844;4.490;2023-11-19T14:47:00;12.50;99.90
14521;DHT22;7347;50.844;4.490;2023-11-19T14:49:27;12.40;99.90
14521;DHT22;7347;50.844;4.490;2023-11-19T14:51:54;12.40;99.90
14521;DHT22;7347;50.844;4.490;2023-11-19T14:54:21;12.30;99.90
14521;DHT22;7347;50.844;4.490;2023-11-19T14:56:49;12.30;99.90
14521;DHT22;7347;50.844;4.490;2023-11-19T14:59:18;12.40;99.90
14521;DHT22;7347;50.844;4.490;2023-11-19T15:01:45;12.40;99.90
14521;DHT22;7347;50.844;4.490;2023-11-19T15:04:12;12.50;99.90
14521;DHT22;7347;50.844;4.490;2023-11-19T15:06:39;12.50;99.90
14521;DHT22;7347;50.844;4.490;2023-11-19T15:09:06;12.50;99.90
14521;DHT22;7347;50.844;4.490;2023-11-19T15:11:33;12.40;99.90
14521;DHT22;7347;50.844;4.490;2023-11-19T15:14:00;12.40;99.90
14521;DHT22;7347;50.844;4.490;2023-11-19T15:16:29;12.40;99.90
14521;DHT22;7347;50.844;4.490;2023-11-19T15:18:58;12.40;99.90
14521;DHT22;7347;50.844;4.490;2023-11-19T15:21:26;12.40;99.90
14521;DHT22;7347;50.844;4.490;2023-11-19T15:23:54;12.40;99.90
14521;DHT22;7347;50.844;4.490;2023-11-19T15:26:21;12.40;99.90
14521;DHT22;7347;50.844;4.490;2023-11-19T15:28:48;12.50;99.90
14521;DHT22;7347;50.844;4.490;2023-11-19T15:31:15;12.50;99.90
14521;DHT22;7347;50.844;4.490;2023-11-19T15:33:43;12.50;99.90
14521;DHT22;7347;50.844;4.490;2023-11-19T15:36:12;12.50;99.90
14521;DHT22;7347;50.844;4.490;2023-11-19T15:38:40;12.60;99.90
14521;DHT22;7347;50.844;4.490;2023-11-19T15:41:06;12.60;99.90
14521;DHT22;7347;50.844;4.490;2023-11-19T15:43:33;12.70;99.90
14521;DHT22;7347;50.844;4.490;2023-11-19T15:46:00;12.70;99.90
14521;DHT22;7347;50.844;4.490;2023-11-19T15:48:27;12.70;99.90
14521;DHT22;7347;50.844;4.490;2023-11-19T15:50:55;12.70;99.90
14521;DHT22;7347;50.844;4.490;2023-11-19T15:53:22;12.70;99.90
14521;DHT22;7347;50.844;4.490;2023-11-19T15:55:49;12.80;99.90
14521;DHT22;7347;50.844;4.490;2023-11-19T15:58:18;12.80;99.90
14521;DHT22;7347;50.844;4.490;2023-11-19T16:00:45;12.80;99.90
14521;DHT22;7347;50.844;4.490;2023-11-19T16:03:12;12.80;99.90
14521;DHT22;7347;50.844;4.490;2023-11-19T16:05:39;12.80;99.90
14521;DHT22;7347;50.844;4.490;2023-11-19T16:08:08;12.70;99.90
14521;DHT22;7347;50.844;4.490;2023-11-19T16:10:36;12.70;99.90
14521;DHT22;7347;50.844;4.490;2023-11-19T16:13:05;12.60;99.90
14521;DHT22;7347;50.844;4.490;2023-11-19T16:15:33;12.60;99.90
14521;DHT22;7347;50.844;4.490;2023-11-19T16:18:00;12.60;99.90
14521;DHT22;7347;50.844;4.490;2023-11-19T16:20:27;12.60;99.90
14521;DHT22;7347;50.844;4.490;2023-11-19T16:22:53;12.50;99.90
14521;DHT22;7347;50.844;4.490;2023-11-19T16:25:22;12.50;99.90
14521;DHT22;7347;50.844;4.490;2023-11-19T16:27:48;12.40;99.90
14521;DHT22;7347;50.844;4.490;2023-11-19T16:30:16;12.40;99.90
14521;DHT22;7347;50.844;4.490;2023-11-19T16:32:50;12.30;99.90
14521;DHT22;7347;50.844;4.490;2023-11-19T16:35:18;12.20;99.90
14521;DHT22;7347;50.844;4.490;2023-11-19T16:37:45;12.20;99.90
14521;DHT22;7347;50.844;4.490;2023-11-19T16:40:13;12.20;99.90
14521;DHT22;7347;50.844;4.490;2023-11-19T16:42:41;12.20;99.90
14521;DHT22;7347;50.844;4.490;2023-11-19T16:45:08;12.10;99.90
14521;DHT22;7347;50.844;4.490;2023-11-19T16:47:35;11.90;99.90
14521;DHT22;7347;50.844;4.490;2023-11-19T16:50:03;11.80;99.90
14521;DHT22;7347;50.844;4.490;2023-11-19T16:52:30;11.60;99.90
14521;DHT22;7347;50.844;4.490;2023-11-19T16:54:58;11.60;99.90
14521;DHT22;7347;50.844;4.490;2023-11-19T16:57:25;11.60;99.90
14521;DHT22;7347;50.844;4.490;2023-11-19T16:59:54;11.60;99.90
14521;DHT22;7347;50.844;4.490;2023-11-19T17:02:22;11.60;99.90
14521;DHT22;7347;50.844;4.490;2023-11-19T17:04:49;11.60;99.90
14521;DHT22;7347;50.844;4.490;2023-11-19T17:07:16;11.60;99.90
14521;DHT22;7347;50.844;4.490;2023-11-19T17:09:42;11.60;99.90
14521;DHT22;7347;50.844;4.490;2023-11-19T17:12:09;11.60;99.90
14521;DHT22;7347;50.844;4.490;2023-11-19T17:14:38;11.70;99.90
14521;DHT22;7347;50.844;4.490;2023-11-19T17:17:06;11.70;99.90
14521;DHT22;7347;50.844;4.490;2023-11-19T17:19:33;11.70;99.90
14521;DHT22;7347;50.844;4.490;2023-11-19T17:22:00;11.70;99.90
14521;DHT22;7347;50.844;4.490;2023-11-19T17:24:28;11.70;99.90
14521;DHT22;7347;50.844;4.490;2023-11-19T17:26:55;11.70;99.90
14521;DHT22;7347;50.844;4.490;2023-11-19T17:29:22;11.70;99.90
14521;DHT22;7347;50.844;4.490;2023-11-19T17:31:48;11.70;99.90
14521;DHT22;7347;50.844;4.490;2023-11-19T17:34:17;11.70;99.90
14521;DHT22;7347;50.844;4.490;2023-11-19T17:36:46;11.70;99.90
14521;DHT22;7347;50.844;4.490;2023-11-19T17:39:13;11.70;99.90
14521;DHT22;7347;50.844;4.490;2023-11-19T17:41:40;11.70;99.90
14521;DHT22;7347;50.844;4.490;2023-11-19T17:44:07;11.70;99.90
14521;DHT22;7347;50.844;4.490;2023-11-19T17:46:34;11.70;99.90
14521;DHT22;7347;50.844;4.490;2023-11-19T17:49:01;11.70;99.90
14521;DHT22;7347;50.844;4.490;2023-11-19T17:51:29;11.70;99.90
14521;DHT22;7347;50.844;4.490;2023-11-19T17:53:55;11.60;99.90
14521;DHT22;7347;50.844;4.490;2023-11-19T17:56:22;11.70;99.90
14521;DHT22;7347;50.844;4.490;2023-11-19T17:58:50;11.60;99.90
14521;DHT22;7347;50.844;4.490;2023-11-19T18:01:17;11.50;99.90
14521;DHT22;7347;50.844;4.490;2023-11-19T18:03:44;11.50;99.90
14521;DHT22;7347;50.844;4.490;2023-11-19T18:06:15;11.50;99.90
14521;DHT22;7347;50.844;4.490;2023-11-19T18:08:45;11.40;99.90
14521;DHT22;7347;50.844;4.490;2023-11-19T18:11:12;11.40;99.90
14521;DHT22;7347;50.844;4.490;2023-11-19T18:13:39;11.50;99.90
14521;DHT22;7347;50.844;4.490;2023-11-19T18:16:06;11.50;99.90
14521;DHT22;7347;50.844;4.490;2023-11-19T18:18:38;11.50;99.90
14521;DHT22;7347;50.844;4.490;2023-11-19T18:21:05;11.60;99.90
14521;DHT22;7347;50.844;4.490;2023-11-19T18:23:32;11.60;99.90
14521;DHT22;7347;50.844;4.490;2023-11-19T18:26:00;11.70;99.90
14521;DHT22;7347;50.844;4.490;2023-11-19T18:28:28;11.80;99.90
14521;DHT22;7347;50.844;4.490;2023-11-19T18:30:55;11.80;99.90
14521;DHT22;7347;50.844;4.490;2023-11-19T18:33:22;11.90;99.90
14521;DHT22;7347;50.844;4.490;2023-11-19T18:35:49;11.90;99.90
14521;DHT22;7347;50.844;4.490;2023-11-19T18:38:16;11.90;99.90
14521;DHT22;7347;50.844;4.490;2023-11-19T18:40:43;11.90;99.90
14521;DHT22;7347;50.844;4.490;2023-11-19T18:43:11;11.80;99.90
14521;DHT22;7347;50.844;4.490;2023-11-19T18:45:39;11.80;99.90
14521;DHT22;7347;50.844;4.490;2023-11-19T18:48:05;11.80;99.90
